Startpagina
METAR-TAF:

METAR-TAF

Vliegvelden :

McKinley Park, Alaska, Verenigde Staten

breedte: 63-44N, lengte: 148-55W, hoogte: 524 m

Actueel weer

Dit bericht is 56 minuten geleden gemaakt, om 13:56 UTC
Wind 9 kt uit het noorden
Temperatuur -18°C
Vochtigheid 77%
Druk 1003 hPa
Zicht: 9.7 km
Geheel bewolkt op 4800 ft
lichte sneeuw

METAR: PAIN 231356Z AUTO 01009KT 6SM -SN OVC048 M18/M21 A2963 RMK AO2 SLP093 P0000 T11781206 FZRANO

Tijdstip: 05:52 (14:52 UTC)


TAF: ontbreekt

Waarnemingen en weersverwachtingen van meer dan 4000 vliegvelden (METAR en TAF).

De beschikbare stations zijn de gele en rode punten op de kaart.

Ga met uw muis naar het station om de naam te zien.

Klik dan om waarnemingen en weersverwachtingen te zien.

kaart wijzigen: klik op de groene knoppen met een zwart kruis om in te zoomen, op de groene knop met een streepje om uit te zoomen of op de groene pijlen voor aangrenzende kaarten.


METAR-TAF: